sensor_id;sensor_type;location;lat;lon;timestamp;temperature;humidity
10133;DHT22;5106;50.926;7.080;2022-11-13T00:02:22;7.20;85.70
10133;DHT22;5106;50.926;7.080;2022-11-13T00:04:48;7.20;85.70
10133;DHT22;5106;50.926;7.080;2022-11-13T00:07:13;7.20;85.80
10133;DHT22;5106;50.926;7.080;2022-11-13T00:09:39;7.20;85.70
10133;DHT22;5106;50.926;7.080;2022-11-13T00:12:05;7.10;85.60
10133;DHT22;5106;50.926;7.080;2022-11-13T00:14:30;7.10;85.60
10133;DHT22;5106;50.926;7.080;2022-11-13T00:16:56;7.10;85.70
10133;DHT22;5106;50.926;7.080;2022-11-13T00:19:21;7.00;85.80
10133;DHT22;5106;50.926;7.080;2022-11-13T00:21:47;7.00;86.00
10133;DHT22;5106;50.926;7.080;2022-11-13T00:24:12;7.00;86.10
10133;DHT22;5106;50.926;7.080;2022-11-13T00:26:38;7.10;86.10
10133;DHT22;5106;50.926;7.080;2022-11-13T00:29:04;7.10;86.00
10133;DHT22;5106;50.926;7.080;2022-11-13T00:31:30;7.10;85.90
10133;DHT22;5106;50.926;7.080;2022-11-13T00:33:57;7.10;86.00
10133;DHT22;5106;50.926;7.080;2022-11-13T00:36:26;7.10;86.00
10133;DHT22;5106;50.926;7.080;2022-11-13T00:38:52;7.10;86.00
10133;DHT22;5106;50.926;7.080;2022-11-13T00:41:18;7.10;86.00
10133;DHT22;5106;50.926;7.080;2022-11-13T00:43:44;7.10;86.10
10133;DHT22;5106;50.926;7.080;2022-11-13T00:46:09;7.10;86.00
10133;DHT22;5106;50.926;7.080;2022-11-13T00:48:36;7.10;86.10
10133;DHT22;5106;50.926;7.080;2022-11-13T00:51:02;7.10;86.10
10133;DHT22;5106;50.926;7.080;2022-11-13T00:53:28;7.10;86.10
10133;DHT22;5106;50.926;7.080;2022-11-13T00:55:53;7.00;86.00
10133;DHT22;5106;50.926;7.080;2022-11-13T00:58:19;7.00;85.80
10133;DHT22;5106;50.926;7.080;2022-11-13T01:00:46;6.90;85.80
10133;DHT22;5106;50.926;7.080;2022-11-13T01:03:13;6.90;85.80
10133;DHT22;5106;50.926;7.080;2022-11-13T01:05:41;6.80;85.90
10133;DHT22;5106;50.926;7.080;2022-11-13T01:08:07;6.80;86.00
10133;DHT22;5106;50.926;7.080;2022-11-13T01:10:36;6.80;86.00
10133;DHT22;5106;50.926;7.080;2022-11-13T01:13:02;6.80;86.00
10133;DHT22;5106;50.926;7.080;2022-11-13T01:15:28;6.80;86.00
10133;DHT22;5106;50.926;7.080;2022-11-13T01:17:53;6.80;86.00
10133;DHT22;5106;50.926;7.080;2022-11-13T01:20:21;6.70;85.90
10133;DHT22;5106;50.926;7.080;2022-11-13T01:22:47;6.70;85.80
10133;DHT22;5106;50.926;7.080;2022-11-13T01:25:12;6.60;85.80
10133;DHT22;5106;50.926;7.080;2022-11-13T01:27:38;6.60;85.70
10133;DHT22;5106;50.926;7.080;2022-11-13T01:30:04;6.60;85.80
10133;DHT22;5106;50.926;7.080;2022-11-13T01:32:30;6.50;85.80
10133;DHT22;5106;50.926;7.080;2022-11-13T01:34:56;6.50;85.60
10133;DHT22;5106;50.926;7.080;2022-11-13T01:37:22;6.40;85.50
10133;DHT22;5106;50.926;7.080;2022-11-13T01:39:48;6.30;85.50
10133;DHT22;5106;50.926;7.080;2022-11-13T01:42:13;6.30;85.50
10133;DHT22;5106;50.926;7.080;2022-11-13T01:44:54;6.30;85.70
10133;DHT22;5106;50.926;7.080;2022-11-13T01:47:21;6.30;85.60
10133;DHT22;5106;50.926;7.080;2022-11-13T01:49:49;6.30;85.60
10133;DHT22;5106;50.926;7.080;2022-11-13T01:54:49;6.20;85.90
10133;DHT22;5106;50.926;7.080;2022-11-13T01:57:16;6.10;85.90
10133;DHT22;5106;50.926;7.080;2022-11-13T01:59:51;6.10;86.10
10133;DHT22;5106;50.926;7.080;2022-11-13T02:02:19;6.10;86.10
10133;DHT22;5106;50.926;7.080;2022-11-13T02:04:45;6.10;86.10
10133;DHT22;5106;50.926;7.080;2022-11-13T02:07:18;6.10;85.90
10133;DHT22;5106;50.926;7.080;2022-11-13T02:09:49;6.00;85.90
10133;DHT22;5106;50.926;7.080;2022-11-13T02:12:20;6.00;85.90
10133;DHT22;5106;50.926;7.080;2022-11-13T02:14:51;5.90;85.90
10133;DHT22;5106;50.926;7.080;2022-11-13T02:17:29;5.90;85.90
10133;DHT22;5106;50.926;7.080;2022-11-13T02:19:58;5.90;85.80
10133;DHT22;5106;50.926;7.080;2022-11-13T02:25:13;5.80;85.60
10133;DHT22;5106;50.926;7.080;2022-11-13T02:30:19;5.80;85.50
10133;DHT22;5106;50.926;7.080;2022-11-13T02:32:48;5.70;85.60
10133;DHT22;5106;50.926;7.080;2022-11-13T02:35:16;5.70;85.60
10133;DHT22;5106;50.926;7.080;2022-11-13T02:37:43;5.70;85.70
10133;DHT22;5106;50.926;7.080;2022-11-13T02:40:08;5.70;85.70
10133;DHT22;5106;50.926;7.080;2022-11-13T02:42:34;5.70;85.60
10133;DHT22;5106;50.926;7.080;2022-11-13T02:45:00;5.60;85.60
10133;DHT22;5106;50.926;7.080;2022-11-13T02:47:26;5.60;85.60
10133;DHT22;5106;50.926;7.080;2022-11-13T02:49:51;5.60;85.50
10133;DHT22;5106;50.926;7.080;2022-11-13T02:52:17;5.50;85.40
10133;DHT22;5106;50.926;7.080;2022-11-13T02:54:42;5.50;85.50
10133;DHT22;5106;50.926;7.080;2022-11-13T02:57:08;5.50;85.70
10133;DHT22;5106;50.926;7.080;2022-11-13T02:59:33;5.40;85.70
10133;DHT22;5106;50.926;7.080;2022-11-13T03:01:59;5.40;85.80
10133;DHT22;5106;50.926;7.080;2022-11-13T03:04:24;5.40;85.80
10133;DHT22;5106;50.926;7.080;2022-11-13T03:06:50;5.30;85.70
10133;DHT22;5106;50.926;7.080;2022-11-13T03:09:16;5.30;85.60
10133;DHT22;5106;50.926;7.080;2022-11-13T03:11:43;5.30;85.60
10133;DHT22;5106;50.926;7.080;2022-11-13T03:14:08;5.20;85.40
10133;DHT22;5106;50.926;7.080;2022-11-13T03:16:34;5.20;85.50
10133;DHT22;5106;50.926;7.080;2022-11-13T03:19:00;5.20;85.60
10133;DHT22;5106;50.926;7.080;2022-11-13T03:21:26;5.20;85.50
10133;DHT22;5106;50.926;7.080;2022-11-13T03:23:53;5.10;85.40
10133;DHT22;5106;50.926;7.080;2022-11-13T03:26:19;5.10;85.50
10133;DHT22;5106;50.926;7.080;2022-11-13T03:28:44;5.00;85.40
10133;DHT22;5106;50.926;7.080;2022-11-13T03:31:10;5.00;85.50
10133;DHT22;5106;50.926;7.080;2022-11-13T03:33:36;4.90;85.70
10133;DHT22;5106;50.926;7.080;2022-11-13T03:36:02;4.80;85.70
10133;DHT22;5106;50.926;7.080;2022-11-13T03:38:27;4.80;85.80
10133;DHT22;5106;50.926;7.080;2022-11-13T03:40:53;4.80;85.90
10133;DHT22;5106;50.926;7.080;2022-11-13T03:43:19;4.80;86.00
10133;DHT22;5106;50.926;7.080;2022-11-13T03:45:45;4.80;86.00
10133;DHT22;5106;50.926;7.080;2022-11-13T03:48:12;4.80;86.20
10133;DHT22;5106;50.926;7.080;2022-11-13T03:50:39;4.90;86.10
10133;DHT22;5106;50.926;7.080;2022-11-13T03:53:04;4.90;86.00
10133;DHT22;5106;50.926;7.080;2022-11-13T03:55:30;4.90;85.90
10133;DHT22;5106;50.926;7.080;2022-11-13T03:57:55;4.80;86.00
10133;DHT22;5106;50.926;7.080;2022-11-13T04:00:21;4.80;85.80
10133;DHT22;5106;50.926;7.080;2022-11-13T04:02:47;4.80;85.80
10133;DHT22;5106;50.926;7.080;2022-11-13T04:05:12;4.80;85.90
10133;DHT22;5106;50.926;7.080;2022-11-13T04:07:38;4.70;86.00
10133;DHT22;5106;50.926;7.080;2022-11-13T04:10:04;4.60;86.00
10133;DHT22;5106;50.926;7.080;2022-11-13T04:12:29;4.60;86.00
10133;DHT22;5106;50.926;7.080;2022-11-13T04:14:55;4.60;85.90
10133;DHT22;5106;50.926;7.080;2022-11-13T04:17:21;4.60;85.80
10133;DHT22;5106;50.926;7.080;2022-11-13T04:19:46;4.60;85.80
10133;DHT22;5106;50.926;7.080;2022-11-13T04:22:12;4.60;85.90
10133;DHT22;5106;50.926;7.080;2022-11-13T04:24:37;4.50;85.90
10133;DHT22;5106;50.926;7.080;2022-11-13T04:27:03;4.50;85.90
10133;DHT22;5106;50.926;7.080;2022-11-13T04:29:28;4.50;86.00
10133;DHT22;5106;50.926;7.080;2022-11-13T04:31:54;4.60;86.10
10133;DHT22;5106;50.926;7.080;2022-11-13T04:34:19;4.60;86.00
10133;DHT22;5106;50.926;7.080;2022-11-13T04:36:45;4.60;85.90
10133;DHT22;5106;50.926;7.080;2022-11-13T04:39:11;4.60;85.80
10133;DHT22;5106;50.926;7.080;2022-11-13T04:41:36;4.60;85.70
10133;DHT22;5106;50.926;7.080;2022-11-13T04:44:21;4.50;85.60
10133;DHT22;5106;50.926;7.080;2022-11-13T04:46:46;4.50;85.30
10133;DHT22;5106;50.926;7.080;2022-11-13T04:49:12;4.40;85.40
10133;DHT22;5106;50.926;7.080;2022-11-13T04:51:37;4.40;85.40
10133;DHT22;5106;50.926;7.080;2022-11-13T04:54:03;4.40;85.50
10133;DHT22;5106;50.926;7.080;2022-11-13T04:56:29;4.30;85.60
10133;DHT22;5106;50.926;7.080;2022-11-13T04:58:54;4.30;85.70
10133;DHT22;5106;50.926;7.080;2022-11-13T05:01:20;4.30;85.70
10133;DHT22;5106;50.926;7.080;2022-11-13T05:03:45;4.30;85.90
10133;DHT22;5106;50.926;7.080;2022-11-13T05:06:11;4.30;85.80
10133;DHT22;5106;50.926;7.080;2022-11-13T05:08:37;4.30;85.90
10133;DHT22;5106;50.926;7.080;2022-11-13T05:11:03;4.30;85.90
10133;DHT22;5106;50.926;7.080;2022-11-13T05:13:33;4.30;85.80
10133;DHT22;5106;50.926;7.080;2022-11-13T05:16:04;4.20;85.70
10133;DHT22;5106;50.926;7.080;2022-11-13T05:18:31;4.20;85.70
10133;DHT22;5106;50.926;7.080;2022-11-13T05:20:57;4.20;85.70
10133;DHT22;5106;50.926;7.080;2022-11-13T05:23:23;4.20;85.70
10133;DHT22;5106;50.926;7.080;2022-11-13T05:25:49;4.20;85.70
10133;DHT22;5106;50.926;7.080;2022-11-13T05:28:14;4.20;85.60
10133;DHT22;5106;50.926;7.080;2022-11-13T05:30:40;4.20;85.80
10133;DHT22;5106;50.926;7.080;2022-11-13T05:33:06;4.20;85.60
10133;DHT22;5106;50.926;7.080;2022-11-13T05:35:31;4.10;85.50
10133;DHT22;5106;50.926;7.080;2022-11-13T05:38:00;4.10;85.60
10133;DHT22;5106;50.926;7.080;2022-11-13T05:40:27;4.00;85.70
10133;DHT22;5106;50.926;7.080;2022-11-13T05:42:53;4.00;85.90
10133;DHT22;5106;50.926;7.080;2022-11-13T05:45:19;4.00;86.20
10133;DHT22;5106;50.926;7.080;2022-11-13T05:47:45;4.00;86.20
10133;DHT22;5106;50.926;7.080;2022-11-13T05:50:10;4.00;86.10
10133;DHT22;5106;50.926;7.080;2022-11-13T05:52:36;4.00;86.20
10133;DHT22;5106;50.926;7.080;2022-11-13T05:55:02;3.90;86.30
10133;DHT22;5106;50.926;7.080;2022-11-13T05:57:27;3.90;86.30
10133;DHT22;5106;50.926;7.080;2022-11-13T05:59:53;4.00;86.20
10133;DHT22;5106;50.926;7.080;2022-11-13T06:02:18;4.00;86.30
10133;DHT22;5106;50.926;7.080;2022-11-13T06:04:44;4.00;86.20
10133;DHT22;5106;50.926;7.080;2022-11-13T06:07:10;4.00;86.20
10133;DHT22;5106;50.926;7.080;2022-11-13T06:09:35;4.00;86.20
10133;DHT22;5106;50.926;7.080;2022-11-13T06:12:01;4.00;86.10
10133;DHT22;5106;50.926;7.080;2022-11-13T06:14:27;4.00;86.10
10133;DHT22;5106;50.926;7.080;2022-11-13T06:16:52;4.00;86.10
10133;DHT22;5106;50.926;7.080;2022-11-13T06:19:18;4.00;86.20
10133;DHT22;5106;50.926;7.080;2022-11-13T06:21:43;4.00;86.00
10133;DHT22;5106;50.926;7.080;2022-11-13T06:24:11;4.00;86.00
10133;DHT22;5106;50.926;7.080;2022-11-13T06:26:37;3.90;86.00
10133;DHT22;5106;50.926;7.080;2022-11-13T06:29:04;3.90;86.00
10133;DHT22;5106;50.926;7.080;2022-11-13T06:31:32;3.90;86.10
10133;DHT22;5106;50.926;7.080;2022-11-13T06:33:59;3.90;86.20
10133;DHT22;5106;50.926;7.080;2022-11-13T06:36:35;3.90;86.30
10133;DHT22;5106;50.926;7.080;2022-11-13T06:39:04;3.90;86.20
10133;DHT22;5106;50.926;7.080;2022-11-13T06:41:30;3.90;86.20
10133;DHT22;5106;50.926;7.080;2022-11-13T06:43:57;3.90;86.20
10133;DHT22;5106;50.926;7.080;2022-11-13T06:46:24;3.90;86.30
10133;DHT22;5106;50.926;7.080;2022-11-13T06:48:50;3.90;86.30
10133;DHT22;5106;50.926;7.080;2022-11-13T06:51:22;3.90;86.30
10133;DHT22;5106;50.926;7.080;2022-11-13T06:53:47;3.90;86.20
10133;DHT22;5106;50.926;7.080;2022-11-13T06:56:14;3.90;86.30
10133;DHT22;5106;50.926;7.080;2022-11-13T06:58:40;3.90;86.30
10133;DHT22;5106;50.926;7.080;2022-11-13T07:01:12;3.90;86.40
10133;DHT22;5106;50.926;7.080;2022-11-13T07:03:38;3.90;86.40
10133;DHT22;5106;50.926;7.080;2022-11-13T07:06:06;4.00;86.40
10133;DHT22;5106;50.926;7.080;2022-11-13T07:08:33;4.00;86.40
10133;DHT22;5106;50.926;7.080;2022-11-13T07:10:59;3.90;86.40
10133;DHT22;5106;50.926;7.080;2022-11-13T07:13:26;4.00;86.40
10133;DHT22;5106;50.926;7.080;2022-11-13T07:15:52;4.00;86.40
10133;DHT22;5106;50.926;7.080;2022-11-13T07:18:18;4.00;86.50
10133;DHT22;5106;50.926;7.080;2022-11-13T07:20:43;4.00;86.50
10133;DHT22;5106;50.926;7.080;2022-11-13T07:23:09;4.00;86.50
10133;DHT22;5106;50.926;7.080;2022-11-13T07:25:35;4.00;86.60
10133;DHT22;5106;50.926;7.080;2022-11-13T07:28:01;4.00;86.50
10133;DHT22;5106;50.926;7.080;2022-11-13T07:30:27;4.10;86.50
10133;DHT22;5106;50.926;7.080;2022-11-13T07:32:52;4.10;86.60
10133;DHT22;5106;50.926;7.080;2022-11-13T07:35:18;4.10;86.70
10133;DHT22;5106;50.926;7.080;2022-11-13T07:37:44;4.10;86.70
10133;DHT22;5106;50.926;7.080;2022-11-13T07:40:11;4.20;86.70
10133;DHT22;5106;50.926;7.080;2022-11-13T07:42:37;4.20;86.60
10133;DHT22;5106;50.926;7.080;2022-11-13T07:45:04;4.20;86.60
10133;DHT22;5106;50.926;7.080;2022-11-13T07:47:30;4.20;86.60
10133;DHT22;5106;50.926;7.080;2022-11-13T07:49:55;4.20;86.70
10133;DHT22;5106;50.926;7.080;2022-11-13T07:52:21;4.20;86.70
10133;DHT22;5106;50.926;7.080;2022-11-13T07:54:47;4.30;86.80
10133;DHT22;5106;50.926;7.080;2022-11-13T07:57:13;4.30;86.80
10133;DHT22;5106;50.926;7.080;2022-11-13T07:59:38;4.30;86.80
10133;DHT22;5106;50.926;7.080;2022-11-13T08:02:04;4.40;86.90
10133;DHT22;5106;50.926;7.080;2022-11-13T08:04:30;4.50;86.90
10133;DHT22;5106;50.926;7.080;2022-11-13T08:06:56;4.50;86.90
10133;DHT22;5106;50.926;7.080;2022-11-13T08:09:21;4.50;86.90
10133;DHT22;5106;50.926;7.080;2022-11-13T08:11:47;4.50;86.90
10133;DHT22;5106;50.926;7.080;2022-11-13T08:14:13;4.50;86.90
10133;DHT22;5106;50.926;7.080;2022-11-13T08:16:38;4.50;87.00
10133;DHT22;5106;50.926;7.080;2022-11-13T08:19:04;4.50;87.20
10133;DHT22;5106;50.926;7.080;2022-11-13T08:21:29;4.60;87.30
10133;DHT22;5106;50.926;7.080;2022-11-13T08:23:55;4.60;87.30
10133;DHT22;5106;50.926;7.080;2022-11-13T08:26:21;4.70;87.40
10133;DHT22;5106;50.926;7.080;2022-11-13T08:28:47;4.70;87.40
10133;DHT22;5106;50.926;7.080;2022-11-13T08:31:14;4.80;87.50
10133;DHT22;5106;50.926;7.080;2022-11-13T08:33:42;4.80;87.50
10133;DHT22;5106;50.926;7.080;2022-11-13T08:36:09;4.90;87.50
10133;DHT22;5106;50.926;7.080;2022-11-13T08:38:35;5.00;87.60
10133;DHT22;5106;50.926;7.080;2022-11-13T08:41:02;5.00;87.60
10133;DHT22;5106;50.926;7.080;2022-11-13T08:43:28;5.10;87.70
10133;DHT22;5106;50.926;7.080;2022-11-13T08:45:54;5.10;87.70
10133;DHT22;5106;50.926;7.080;2022-11-13T08:48:21;5.20;87.70
10133;DHT22;5106;50.926;7.080;2022-11-13T08:50:51;5.30;87.70
10133;DHT22;5106;50.926;7.080;2022-11-13T08:53:16;5.40;87.80
10133;DHT22;5106;50.926;7.080;2022-11-13T08:55:42;5.40;87.80
10133;DHT22;5106;50.926;7.080;2022-11-13T08:58:08;5.50;87.70
10133;DHT22;5106;50.926;7.080;2022-11-13T09:00:34;5.60;87.60
10133;DHT22;5106;50.926;7.080;2022-11-13T09:03:00;5.70;87.60
10133;DHT22;5106;50.926;7.080;2022-11-13T09:05:26;5.80;87.60
10133;DHT22;5106;50.926;7.080;2022-11-13T09:07:59;5.90;87.60
10133;DHT22;5106;50.926;7.080;2022-11-13T09:10:26;6.00;87.40
10133;DHT22;5106;50.926;7.080;2022-11-13T09:12:56;6.10;87.40
10133;DHT22;5106;50.926;7.080;2022-11-13T09:15:22;6.20;87.30
10133;DHT22;5106;50.926;7.080;2022-11-13T09:17:48;6.40;87.20
10133;DHT22;5106;50.926;7.080;2022-11-13T09:20:13;6.50;87.00
10133;DHT22;5106;50.926;7.080;2022-11-13T09:22:39;6.60;86.90
10133;DHT22;5106;50.926;7.080;2022-11-13T09:25:05;6.80;86.80
10133;DHT22;5106;50.926;7.080;2022-11-13T09:27:31;6.90;86.70
10133;DHT22;5106;50.926;7.080;2022-11-13T09:29:56;7.00;86.50
10133;DHT22;5106;50.926;7.080;2022-11-13T09:32:22;7.10;86.40
10133;DHT22;5106;50.926;7.080;2022-11-13T09:34:48;7.30;86.30
10133;DHT22;5106;50.926;7.080;2022-11-13T09:37:14;7.40;86.30
10133;DHT22;5106;50.926;7.080;2022-11-13T09:39:40;7.60;85.80
10133;DHT22;5106;50.926;7.080;2022-11-13T09:42:15;7.70;85.60
10133;DHT22;5106;50.926;7.080;2022-11-13T09:45:10;7.90;85.40
10133;DHT22;5106;50.926;7.080;2022-11-13T09:47:43;8.00;84.80
10133;DHT22;5106;50.926;7.080;2022-11-13T09:50:18;8.20;84.30
10133;DHT22;5106;50.926;7.080;2022-11-13T09:52:45;8.30;83.90
10133;DHT22;5106;50.926;7.080;2022-11-13T09:55:13;8.50;83.30
10133;DHT22;5106;50.926;7.080;2022-11-13T09:57:56;8.70;82.70
10133;DHT22;5106;50.926;7.080;2022-11-13T10:00:27;8.90;82.50
10133;DHT22;5106;50.926;7.080;2022-11-13T10:05:40;9.20;81.20
10133;DHT22;5106;50.926;7.080;2022-11-13T10:08:27;9.40;79.40
10133;DHT22;5106;50.926;7.080;2022-11-13T10:11:20;9.60;78.60
10133;DHT22;5106;50.926;7.080;2022-11-13T10:13:52;9.80;76.90
10133;DHT22;5106;50.926;7.080;2022-11-13T10:19:03;10.20;76.50
10133;DHT22;5106;50.926;7.080;2022-11-13T10:21:36;10.40;76.60
10133;DHT22;5106;50.926;7.080;2022-11-13T10:24:09;10.60;75.90
10133;DHT22;5106;50.926;7.080;2022-11-13T10:26:36;10.70;76.00
10133;DHT22;5106;50.926;7.080;2022-11-13T10:29:10;10.90;75.00
10133;DHT22;5106;50.926;7.080;2022-11-13T10:31:41;11.00;75.00
10133;DHT22;5106;50.926;7.080;2022-11-13T10:34:07;11.20;74.50
10133;DHT22;5106;50.926;7.080;2022-11-13T10:36:44;11.20;74.10
10133;DHT22;5106;50.926;7.080;2022-11-13T10:39:13;11.40;73.30
10133;DHT22;5106;50.926;7.080;2022-11-13T10:41:50;11.50;73.30
10133;DHT22;5106;50.926;7.080;2022-11-13T10:44:28;11.60;73.00
10133;DHT22;5106;50.926;7.080;2022-11-13T10:49:36;11.80;70.70
10133;DHT22;5106;50.926;7.080;2022-11-13T10:52:01;11.90;71.00
10133;DHT22;5106;50.926;7.080;2022-11-13T10:54:31;12.10;71.00
10133;DHT22;5106;50.926;7.080;2022-11-13T10:57:00;12.10;70.60
10133;DHT22;5106;50.926;7.080;2022-11-13T10:59:40;12.20;70.60
10133;DHT22;5106;50.926;7.080;2022-11-13T11:02:18;12.30;70.60
10133;DHT22;5106;50.926;7.080;2022-11-13T11:04:44;12.40;70.00
10133;DHT22;5106;50.926;7.080;2022-11-13T11:07:22;12.50;68.90
10133;DHT22;5106;50.926;7.080;2022-11-13T11:09:50;12.60;69.50
10133;DHT22;5106;50.926;7.080;2022-11-13T11:12:21;12.70;69.20
10133;DHT22;5106;50.926;7.080;2022-11-13T11:20:02;13.00;67.60
10133;DHT22;5106;50.926;7.080;2022-11-13T11:22:32;13.00;67.50
10133;DHT22;5106;50.926;7.080;2022-11-13T11:25:14;13.10;66.10
10133;DHT22;5106;50.926;7.080;2022-11-13T11:27:46;13.20;65.20
10133;DHT22;5106;50.926;7.080;2022-11-13T11:30:23;13.20;65.60
10133;DHT22;5106;50.926;7.080;2022-11-13T11:35:41;13.30;66.80
10133;DHT22;5106;50.926;7.080;2022-11-13T11:41:00;13.50;65.50
10133;DHT22;5106;50.926;7.080;2022-11-13T11:43:43;13.50;65.00
10133;DHT22;5106;50.926;7.080;2022-11-13T11:46:21;13.60;64.00
10133;DHT22;5106;50.926;7.080;2022-11-13T11:48:47;13.60;64.60
10133;DHT22;5106;50.926;7.080;2022-11-13T11:51:29;13.70;64.30
10133;DHT22;5106;50.926;7.080;2022-11-13T11:54:20;13.70;63.80
10133;DHT22;5106;50.926;7.080;2022-11-13T11:56:57;13.80;64.30
10133;DHT22;5106;50.926;7.080;2022-11-13T11:59:34;13.90;65.40
10133;DHT22;5106;50.926;7.080;2022-11-13T12:05:22;14.00;63.50
10133;DHT22;5106;50.926;7.080;2022-11-13T12:16:09;14.30;62.40
10133;DHT22;5106;50.926;7.080;2022-11-13T12:21:46;14.40;63.00
10133;DHT22;5106;50.926;7.080;2022-11-13T12:35:19;14.70;60.70
10133;DHT22;5106;50.926;7.080;2022-11-13T12:45:51;14.90;61.20
10133;DHT22;5106;50.926;7.080;2022-11-13T12:50:43;14.90;58.80
10133;DHT22;5106;50.926;7.080;2022-11-13T12:53:10;15.10;59.90
10133;DHT22;5106;50.926;7.080;2022-11-13T12:55:38;15.10;58.80
10133;DHT22;5106;50.926;7.080;2022-11-13T12:58:28;15.10;59.50
10133;DHT22;5106;50.926;7.080;2022-11-13T13:14:36;15.30;56.40
10133;DHT22;5106;50.926;7.080;2022-11-13T13:17:19;15.40;55.90
10133;DHT22;5106;50.926;7.080;2022-11-13T13:19:56;15.50;55.20
10133;DHT22;5106;50.926;7.080;2022-11-13T13:22:30;15.50;54.70
10133;DHT22;5106;50.926;7.080;2022-11-13T13:27:29;15.40;58.10
10133;DHT22;5106;50.926;7.080;2022-11-13T13:29:57;15.30;58.70
10133;DHT22;5106;50.926;7.080;2022-11-13T13:32:41;15.20;59.50
10133;DHT22;5106;50.926;7.080;2022-11-13T13:35:54;15.20;60.70
10133;DHT22;5106;50.926;7.080;2022-11-13T13:43:56;15.10;61.00
10133;DHT22;5106;50.926;7.080;2022-11-13T13:46:24;15.00;62.20
10133;DHT22;5106;50.926;7.080;2022-11-13T13:48:54;15.00;60.20
10133;DHT22;5106;50.926;7.080;2022-11-13T13:51:27;15.00;61.20
10133;DHT22;5106;50.926;7.080;2022-11-13T13:53:55;15.00;60.50
10133;DHT22;5106;50.926;7.080;2022-11-13T13:56:23;15.00;61.50
10133;DHT22;5106;50.926;7.080;2022-11-13T13:58:50;14.90;62.50
10133;DHT22;5106;50.926;7.080;2022-11-13T14:01:31;14.90;62.80
10133;DHT22;5106;50.926;7.080;2022-11-13T14:06:35;14.90;60.90
10133;DHT22;5106;50.926;7.080;2022-11-13T14:09:08;14.80;61.10
10133;DHT22;5106;50.926;7.080;2022-11-13T14:11:34;14.80;60.70
10133;DHT22;5106;50.926;7.080;2022-11-13T14:14:20;14.80;61.90
10133;DHT22;5106;50.926;7.080;2022-11-13T14:16:47;14.80;62.80
10133;DHT22;5106;50.926;7.080;2022-11-13T14:19:13;14.80;64.60
10133;DHT22;5106;50.926;7.080;2022-11-13T14:21:39;14.80;65.30
10133;DHT22;5106;50.926;7.080;2022-11-13T14:24:27;14.80;61.80
10133;DHT22;5106;50.926;7.080;2022-11-13T14:26:55;14.70;62.30
10133;DHT22;5106;50.926;7.080;2022-11-13T14:29:36;14.60;63.80
10133;DHT22;5106;50.926;7.080;2022-11-13T14:32:03;14.50;65.60
10133;DHT22;5106;50.926;7.080;2022-11-13T14:34:30;14.50;66.10
10133;DHT22;5106;50.926;7.080;2022-11-13T14:39:51;14.50;68.10
10133;DHT22;5106;50.926;7.080;2022-11-13T14:42:37;14.40;68.20
10133;DHT22;5106;50.926;7.080;2022-11-13T14:45:25;14.30;69.90
10133;DHT22;5106;50.926;7.080;2022-11-13T14:47:59;14.20;70.40
10133;DHT22;5106;50.926;7.080;2022-11-13T14:50:29;14.10;70.30
10133;DHT22;5106;50.926;7.080;2022-11-13T14:53:06;14.00;69.20
10133;DHT22;5106;50.926;7.080;2022-11-13T14:55:35;14.00;67.80
10133;DHT22;5106;50.926;7.080;2022-11-13T14:58:01;13.90;69.40
10133;DHT22;5106;50.926;7.080;2022-11-13T15:00:31;13.90;70.90
10133;DHT22;5106;50.926;7.080;2022-11-13T15:02:57;13.80;71.80
10133;DHT22;5106;50.926;7.080;2022-11-13T15:05:23;13.70;72.50
10133;DHT22;5106;50.926;7.080;2022-11-13T15:07:49;13.60;73.00
10133;DHT22;5106;50.926;7.080;2022-11-13T15:10:18;13.50;73.30
10133;DHT22;5106;50.926;7.080;2022-11-13T15:12:44;13.40;72.40
10133;DHT22;5106;50.926;7.080;2022-11-13T15:15:38;13.30;72.30
10133;DHT22;5106;50.926;7.080;2022-11-13T15:18:03;13.20;73.00
10133;DHT22;5106;50.926;7.080;2022-11-13T15:20:30;13.10;73.60
10133;DHT22;5106;50.926;7.080;2022-11-13T15:22:57;13.10;73.80
10133;DHT22;5106;50.926;7.080;2022-11-13T15:25:24;13.00;74.70
10133;DHT22;5106;50.926;7.080;2022-11-13T15:27:50;12.90;75.40
10133;DHT22;5106;50.926;7.080;2022-11-13T15:30:19;12.80;75.60
10133;DHT22;5106;50.926;7.080;2022-11-13T15:32:44;12.70;75.90
10133;DHT22;5106;50.926;7.080;2022-11-13T15:35:17;12.60;76.30
10133;DHT22;5106;50.926;7.080;2022-11-13T15:37:44;12.50;76.60
10133;DHT22;5106;50.926;7.080;2022-11-13T15:40:11;12.30;76.80
10133;DHT22;5106;50.926;7.080;2022-11-13T15:42:37;12.10;76.90
10133;DHT22;5106;50.926;7.080;2022-11-13T15:45:04;11.90;77.00
10133;DHT22;5106;50.926;7.080;2022-11-13T15:47:32;11.80;76.80
10133;DHT22;5106;50.926;7.080;2022-11-13T15:49:59;11.60;77.00
10133;DHT22;5106;50.926;7.080;2022-11-13T15:52:27;11.40;77.20
10133;DHT22;5106;50.926;7.080;2022-11-13T15:54:54;11.40;77.30
10133;DHT22;5106;50.926;7.080;2022-11-13T15:57:25;11.30;77.60
10133;DHT22;5106;50.926;7.080;2022-11-13T15:59:51;11.20;77.70
10133;DHT22;5106;50.926;7.080;2022-11-13T16:02:17;11.20;77.90
10133;DHT22;5106;50.926;7.080;2022-11-13T16:04:43;11.10;78.20
10133;DHT22;5106;50.926;7.080;2022-11-13T16:07:17;11.00;78.30
10133;DHT22;5106;50.926;7.080;2022-11-13T16:09:46;10.90;78.40
10133;DHT22;5106;50.926;7.080;2022-11-13T16:12:12;10.80;78.60
10133;DHT22;5106;50.926;7.080;2022-11-13T16:14:38;10.60;78.90
10133;DHT22;5106;50.926;7.080;2022-11-13T16:17:12;10.60;79.30
10133;DHT22;5106;50.926;7.080;2022-11-13T16:19:39;10.50;79.40
10133;DHT22;5106;50.926;7.080;2022-11-13T16:22:23;10.50;79.40
10133;DHT22;5106;50.926;7.080;2022-11-13T16:24:49;10.30;79.50
10133;DHT22;5106;50.926;7.080;2022-11-13T16:27:27;10.30;79.70
10133;DHT22;5106;50.926;7.080;2022-11-13T16:29:53;10.20;79.70
10133;DHT22;5106;50.926;7.080;2022-11-13T16:32:18;10.10;79.90
10133;DHT22;5106;50.926;7.080;2022-11-13T16:34:44;10.00;80.20
10133;DHT22;5106;50.926;7.080;2022-11-13T16:37:19;9.90;80.30
10133;DHT22;5106;50.926;7.080;2022-11-13T16:39:45;9.80;80.60
10133;DHT22;5106;50.926;7.080;2022-11-13T16:42:12;9.70;81.00
10133;DHT22;5106;50.926;7.080;2022-11-13T16:44:39;9.70;81.00
10133;DHT22;5106;50.926;7.080;2022-11-13T16:47:25;9.60;81.20
10133;DHT22;5106;50.926;7.080;2022-11-13T16:49:51;9.50;81.50
10133;DHT22;5106;50.926;7.080;2022-11-13T16:52:17;9.50;81.60
10133;DHT22;5106;50.926;7.080;2022-11-13T16:54:43;9.50;81.80
10133;DHT22;5106;50.926;7.080;2022-11-13T16:57:12;9.40;81.80
10133;DHT22;5106;50.926;7.080;2022-11-13T16:59:39;9.40;81.70
10133;DHT22;5106;50.926;7.080;2022-11-13T17:02:16;9.40;81.70
10133;DHT22;5106;50.926;7.080;2022-11-13T17:04:42;9.30;81.50
10133;DHT22;5106;50.926;7.080;2022-11-13T17:07:12;9.20;81.90
10133;DHT22;5106;50.926;7.080;2022-11-13T17:09:43;9.10;82.10
10133;DHT22;5106;50.926;7.080;2022-11-13T17:12:09;9.10;82.30
10133;DHT22;5106;50.926;7.080;2022-11-13T17:14:36;9.00;82.20
10133;DHT22;5106;50.926;7.080;2022-11-13T17:17:03;8.90;82.40
10133;DHT22;5106;50.926;7.080;2022-11-13T17:19:29;8.80;82.40
10133;DHT22;5106;50.926;7.080;2022-11-13T17:21:55;8.70;82.50
10133;DHT22;5106;50.926;7.080;2022-11-13T17:24:20;8.70;82.70
10133;DHT22;5106;50.926;7.080;2022-11-13T17:26:46;8.60;82.60
10133;DHT22;5106;50.926;7.080;2022-11-13T17:29:12;8.60;82.80
10133;DHT22;5106;50.926;7.080;2022-11-13T17:31:37;8.40;82.60
10133;DHT22;5106;50.926;7.080;2022-11-13T17:34:03;8.40;82.90
10133;DHT22;5106;50.926;7.080;2022-11-13T17:36:28;8.30;82.70